Time;durP1;ratioP1;P1;durP2;ratioP2;P2;SDS_P1;SDS_P2;PMS_P1;PMS_P2;Temp;Humidity;BMP_temperature;BMP_pressure;BME280_temperature;BME280_humidity;BME280_pressure;Samples;Min_cycle;Max_cycle;Signal;HPM_P1;HPM_P2
2023/05/27 00:00:32;;;;;;;21.77;8.60;;;16.60;53.50;;;;;;5001850;28;115300;-79
2023/05/27 00:03:03;;;;;;;14.55;7.90;;;16.60;52.60;;;;;;5002598;28;114726;-78
2023/05/27 00:05:30;;;;;;;13.57;8.30;;;16.50;52.90;;;;;;5003051;28;114242;-78
2023/05/27 00:07:57;;;;;;;14.35;7.97;;;16.50;53.00;;;;;;4987730;28;114713;-78
2023/05/27 00:10:24;;;;;;;12.68;7.95;;;16.40;52.60;;;;;;4981079;28;115083;-78
2023/05/27 00:12:51;;;;;;;13.07;7.40;;;16.30;53.70;;;;;;4980647;28;114749;-78
2023/05/27 00:15:18;;;;;;;14.05;8.23;;;16.30;53.70;;;;;;4995710;28;114495;-79
2023/05/27 00:17:47;;;;;;;16.05;7.50;;;16.30;53.60;;;;;;5003963;28;114476;-79
2023/05/27 00:20:15;;;;;;;13.57;7.15;;;16.30;53.60;;;;;;4980232;28;115976;-78
2023/05/27 00:22:43;;;;;;;11.73;7.30;;;16.30;54.00;;;;;;4975031;28;115964;-78
2023/05/27 00:25:10;;;;;;;12.30;7.60;;;16.30;53.90;;;;;;4983404;28;114523;-78
2023/05/27 00:27:38;;;;;;;13.50;7.78;;;16.20;54.30;;;;;;4982592;28;114589;-79
2023/05/27 00:30:05;;;;;;;14.43;7.80;;;16.30;54.60;;;;;;4982547;28;115114;-78
2023/05/27 00:32:33;;;;;;;11.85;7.28;;;16.30;54.30;;;;;;4992362;28;115337;-78
2023/05/27 00:35:00;;;;;;;13.18;7.38;;;16.30;54.70;;;;;;5003214;28;114428;-79
2023/05/27 00:37:28;;;;;;;13.50;7.55;;;16.30;54.60;;;;;;5003290;28;114475;-78
2023/05/27 00:39:55;;;;;;;12.07;7.55;;;16.30;54.20;;;;;;5002103;28;115542;-77
2023/05/27 00:42:26;;;;;;;13.50;7.47;;;16.30;54.60;;;;;;5002278;28;115763;-79
2023/05/27 00:44:53;;;;;;;12.68;7.72;;;16.30;53.90;;;;;;5002075;28;114382;-79
2023/05/27 00:47:20;;;;;;;15.38;8.02;;;16.30;54.80;;;;;;5003049;28;114689;-77
2023/05/27 00:49:48;;;;;;;11.13;6.57;;;16.20;54.20;;;;;;5001272;28;114996;-78
2023/05/27 00:52:15;;;;;;;14.13;8.00;;;16.20;54.90;;;;;;5000629;28;114707;-78
2023/05/27 00:54:42;;;;;;;13.73;7.38;;;16.20;54.40;;;;;;5002008;28;114679;-78
2023/05/27 00:57:09;;;;;;;14.00;7.75;;;16.20;53.20;;;;;;4985028;28;116093;-77
2023/05/27 00:59:37;;;;;;;13.82;7.78;;;16.20;54.50;;;;;;4983948;28;114825;-77
2023/05/27 01:02:05;;;;;;;12.00;7.57;;;16.10;54.50;;;;;;5000696;28;114536;-76
2023/05/27 01:04:32;;;;;;;12.38;7.40;;;16.10;54.70;;;;;;5001133;28;114536;-77
2023/05/27 01:07:29;;;;;;;11.88;6.75;;;16.10;54.70;;;;;;5002687;28;114453;-77
2023/05/27 01:10:01;;;;;;;13.77;7.95;;;16.10;54.20;;;;;;5001610;28;115036;-77
2023/05/27 01:12:35;;;;;;;11.43;7.05;;;16.10;55.00;;;;;;4983944;28;114663;-78
2023/05/27 01:15:03;;;;;;;12.75;7.38;;;16.10;55.20;;;;;;4984027;28;114372;-78
2023/05/27 01:17:30;;;;;;;13.75;8.13;;;16.00;54.80;;;;;;5001229;28;114554;-79
2023/05/27 01:19:59;;;;;;;13.90;7.75;;;16.00;54.20;;;;;;4983381;28;115180;-76
2023/05/27 01:22:30;;;;;;;12.27;7.20;;;16.00;54.50;;;;;;5000483;28;114652;-77
2023/05/27 01:24:57;;;;;;;12.52;7.32;;;16.00;55.10;;;;;;5001058;28;114394;-78
2023/05/27 01:27:25;;;;;;;13.85;8.05;;;15.90;54.60;;;;;;5001770;28;114653;-78
2023/05/27 01:29:53;;;;;;;15.07;8.05;;;15.90;55.00;;;;;;5001476;28;114998;-78
2023/05/27 01:32:38;;;;;;;14.27;7.93;;;15.90;53.80;;;;;;4983737;28;117042;-78
2023/05/27 01:35:23;;;;;;;11.27;6.78;;;15.80;53.50;;;;;;5000324;28;115386;-79
2023/05/27 01:37:51;;;;;;;14.27;7.70;;;15.80;54.60;;;;;;5014150;28;114718;-79
2023/05/27 01:40:20;;;;;;;10.60;6.72;;;15.70;54.80;;;;;;4995844;28;115218;-79
2023/05/27 01:42:48;;;;;;;12.82;7.10;;;15.80;55.20;;;;;;4979924;28;114903;-79
2023/05/27 01:45:15;;;;;;;13.57;6.93;;;15.80;54.40;;;;;;4986680;28;114452;-78
2023/05/27 01:47:45;;;;;;;11.20;7.15;;;15.80;55.30;;;;;;5001744;28;114515;-78
2023/05/27 01:50:12;;;;;;;10.57;7.13;;;15.80;54.40;;;;;;5000477;28;115164;-78
2023/05/27 01:52:39;;;;;;;14.63;7.75;;;15.80;55.20;;;;;;5001163;28;114587;-78
2023/05/27 01:55:07;;;;;;;12.82;7.50;;;15.80;53.90;;;;;;5001534;28;114693;-78
2023/05/27 01:57:36;;;;;;;12.13;7.30;;;15.80;54.10;;;;;;5001004;28;114723;-78
2023/05/27 02:00:05;;;;;;;12.30;7.05;;;15.70;53.60;;;;;;4982737;28;115719;-78
2023/05/27 02:02:42;;;;;;;12.82;6.90;;;15.70;55.30;;;;;;4973157;28;117039;-78
2023/05/27 02:05:12;;;;;;;11.77;7.55;;;15.70;55.10;;;;;;4980084;28;114507;-78
2023/05/27 02:07:40;;;;;;;12.80;7.13;;;15.70;54.50;;;;;;4981077;28;114440;-78
2023/05/27 02:10:08;;;;;;;10.68;6.85;;;15.70;55.20;;;;;;4995937;28;115470;-80
2023/05/27 02:12:35;;;;;;;11.02;6.45;;;15.70;54.60;;;;;;4979386;28;115660;-78
2023/05/27 02:15:04;;;;;;;14.07;7.00;;;15.70;55.30;;;;;;4980737;28;115187;-78
2023/05/27 02:17:32;;;;;;;13.57;7.05;;;15.70;55.10;;;;;;4996639;28;114289;-78
2023/05/27 02:19:59;;;;;;;12.18;7.00;;;15.70;54.70;;;;;;4979791;28;115386;-78
2023/05/27 02:22:27;;;;;;;13.20;7.07;;;15.70;54.60;;;;;;4980823;28;114886;-78
2023/05/27 02:24:54;;;;;;;10.25;6.70;;;15.70;53.50;;;;;;4998155;28;117090;-78
2023/05/27 02:27:21;;;;;;;11.68;6.75;;;15.60;54.30;;;;;;5001340;28;114560;-79
2023/05/27 02:29:48;;;;;;;12.90;7.18;;;15.50;55.00;;;;;;4998602;28;115285;-78
2023/05/27 02:32:16;;;;;;;11.35;6.22;;;15.50;55.20;;;;;;5000071;28;114577;-79
2023/05/27 02:34:43;;;;;;;11.25;6.57;;;15.50;55.70;;;;;;5000336;28;114372;-78
2023/05/27 02:37:20;;;;;;;12.20;6.80;;;15.60;55.40;;;;;;4999633;28;114454;-78
2023/05/27 02:39:57;;;;;;;12.63;7.15;;;15.60;55.10;;;;;;5001140;28;115710;-78
2023/05/27 02:42:24;;;;;;;12.88;6.90;;;15.60;53.30;;;;;;4999396;28;114921;-78
2023/05/27 02:44:52;;;;;;;12.98;7.00;;;15.60;55.20;;;;;;4999896;28;114658;-79
2023/05/27 02:47:22;;;;;;;13.50;7.07;;;15.50;55.20;;;;;;4984658;28;114451;-79
2023/05/27 02:49:50;;;;;;;13.23;7.43;;;15.60;55.00;;;;;;5000700;28;114901;-79
2023/05/27 02:52:17;;;;;;;13.70;7.88;;;15.60;54.30;;;;;;4982410;28;117795;-79
2023/05/27 02:54:44;;;;;;;14.90;7.85;;;15.60;54.90;;;;;;4983318;28;114463;-79
2023/05/27 02:57:11;;;;;;;12.98;7.53;;;15.60;54.20;;;;;;4983501;28;114674;-79
2023/05/27 02:59:39;;;;;;;13.70;7.28;;;15.70;54.20;;;;;;5000123;28;115666;-79
2023/05/27 03:02:06;;;;;;;12.60;7.20;;;15.70;54.20;;;;;;4999241;28;117678;-78
2023/05/27 03:04:33;;;;;;;10.88;6.93;;;15.70;55.10;;;;;;5001288;28;114503;-79
2023/05/27 03:07:00;;;;;;;13.95;7.53;;;15.70;55.00;;;;;;4983328;28;114558;-78
2023/05/27 03:09:29;;;;;;;11.35;6.70;;;15.70;54.10;;;;;;5000070;28;115424;-79
2023/05/27 03:11:56;;;;;;;12.10;7.38;;;15.70;54.70;;;;;;5000262;28;115170;-78
2023/05/27 03:14:25;;;;;;;10.77;6.85;;;15.70;54.80;;;;;;4966659;28;114561;-79
2023/05/27 03:16:53;;;;;;;10.13;6.50;;;15.80;54.60;;;;;;4978192;28;114607;-79
2023/05/27 03:19:21;;;;;;;13.00;7.18;;;15.80;54.90;;;;;;4979699;28;117015;-79
2023/05/27 03:21:49;;;;;;;13.07;7.00;;;15.80;53.80;;;;;;4958790;28;114741;-79
2023/05/27 03:24:19;;;;;;;17.20;7.75;;;15.80;54.70;;;;;;4980368;28;114397;-80
2023/05/27 03:26:46;;;;;;;12.98;6.85;;;15.90;54.10;;;;;;4980452;28;114593;-82
2023/05/27 03:29:15;;;;;;;11.68;6.90;;;16.10;54.10;;;;;;4946083;28;114626;-78
2023/05/27 03:31:43;;;;;;;14.05;7.53;;;16.20;53.70;;;;;;4997076;28;114635;-79
2023/05/27 03:34:14;;;;;;;14.15;7.75;;;16.30;52.40;;;;;;4983542;28;114578;-79
2023/05/27 03:36:46;;;;;;;11.80;6.88;;;16.50;52.40;;;;;;4983968;28;114419;-78
2023/05/27 03:39:16;;;;;;;13.57;7.68;;;16.60;51.80;;;;;;4981136;28;115842;-78
2023/05/27 03:41:53;;;;;;;13.45;7.57;;;16.70;51.50;;;;;;4999229;28;114837;-78
2023/05/27 03:44:22;;;;;;;13.57;7.43;;;16.70;51.20;;;;;;4983055;28;114589;-78
2023/05/27 03:46:49;;;;;;;13.05;7.18;;;16.80;51.10;;;;;;4999538;28;114301;-78
2023/05/27 03:49:16;;;;;;;14.32;7.68;;;16.80;50.70;;;;;;4998711;28;114866;-78
2023/05/27 03:51:43;;;;;;;13.48;6.88;;;16.90;50.70;;;;;;4998830;28;114706;-79
2023/05/27 03:54:12;;;;;;;15.13;7.38;;;17.00;51.00;;;;;;4982234;28;114604;-79
2023/05/27 03:56:39;;;;;;;11.95;7.32;;;17.00;49.80;;;;;;4982969;28;114188;-77
2023/05/27 03:59:06;;;;;;;14.63;7.35;;;17.00;49.70;;;;;;4956448;28;116058;-78
2023/05/27 04:01:35;;;;;;;14.45;7.40;;;17.00;49.60;;;;;;4987141;28;114634;-79
2023/05/27 04:04:02;;;;;;;15.05;7.60;;;17.00;49.20;;;;;;4987217;28;114515;-78
2023/05/27 04:06:31;;;;;;;16.05;8.15;;;17.00;48.70;;;;;;4979163;28;114293;-78
2023/05/27 04:08:58;;;;;;;16.65;7.72;;;16.90;48.30;;;;;;4994233;28;114886;-79
2023/05/27 04:11:27;;;;;;;15.75;7.78;;;16.80;48.50;;;;;;4995465;28;115025;-79
2023/05/27 04:13:54;;;;;;;15.98;7.70;;;16.70;49.00;;;;;;4958319;28;114584;-79
2023/05/27 04:16:21;;;;;;;13.15;8.02;;;16.70;49.40;;;;;;4997254;28;114851;-79
2023/05/27 04:18:51;;;;;;;16.13;8.15;;;16.70;49.50;;;;;;4984298;28;116204;-79
2023/05/27 04:21:19;;;;;;;17.40;8.00;;;16.80;48.60;;;;;;5001599;28;114731;-78
2023/05/27 04:23:48;;;;;;;16.45;8.20;;;16.80;48.20;;;;;;4986053;28;114607;-78
2023/05/27 04:26:15;;;;;;;19.08;7.75;;;16.70;48.30;;;;;;5019116;28;114323;-78
2023/05/27 04:28:48;;;;;;;15.18;8.00;;;16.70;49.00;;;;;;5001372;27;117045;-78
2023/05/27 04:31:15;;;;;;;15.07;7.18;;;16.70;48.80;;;;;;5018036;28;114579;-78
2023/05/27 04:33:47;;;;;;;16.75;7.72;;;16.70;49.80;;;;;;4969686;28;116502;-79
2023/05/27 04:36:16;;;;;;;11.88;7.35;;;16.70;48.90;;;;;;4974981;28;114537;-80
2023/05/27 04:39:02;;;;;;;14.82;7.82;;;16.60;50.10;;;;;;4937668;28;117427;-79
2023/05/27 04:41:33;;;;;;;16.20;7.68;;;16.50;49.50;;;;;;4973492;28;117300;-78
2023/05/27 04:44:19;;;;;;;15.30;8.05;;;16.50;49.40;;;;;;4974421;28;114488;-79
2023/05/27 04:46:48;;;;;;;15.85;8.23;;;16.60;49.30;;;;;;4979096;28;115585;-79
2023/05/27 04:49:16;;;;;;;16.42;7.95;;;16.60;48.70;;;;;;4969265;28;115516;-77
2023/05/27 04:51:44;;;;;;;15.70;8.35;;;16.60;48.30;;;;;;5018141;28;114619;-77
2023/05/27 04:54:13;;;;;;;18.85;9.07;;;16.50;49.10;;;;;;4985120;28;114324;-77
2023/05/27 04:56:40;;;;;;;15.82;9.70;;;16.60;48.70;;;;;;5001206;28;114533;-77
2023/05/27 04:59:16;;;;;;;19.35;8.93;;;16.50;48.40;;;;;;5000301;28;114776;-78
2023/05/27 05:02:09;;;;;;;18.85;9.60;;;16.50;49.00;;;;;;5000625;28;114673;-77
2023/05/27 05:04:50;;;;;;;19.57;9.00;;;16.60;47.90;;;;;;5001653;28;114577;-78
2023/05/27 05:07:19;;;;;;;13.80;7.70;;;16.40;48.20;;;;;;5002460;28;114633;-78
2023/05/27 05:09:53;;;;;;;15.10;8.02;;;16.40;48.40;;;;;;4984081;28;117732;-78
2023/05/27 05:12:27;;;;;;;;;;;16.40;48.00;;;;;;4969734;28;114614;-78
2023/05/27 05:14:55;;;;;;;15.30;7.35;;;16.30;48.60;;;;;;5002681;28;114298;-78
2023/05/27 05:17:24;;;;;;;19.80;10.07;;;16.30;48.80;;;;;;4968495;28;114560;-78
2023/05/27 05:19:52;;;;;;;19.63;11.02;;;16.50;48.00;;;;;;5000506;28;115236;-78
2023/05/27 05:22:20;;;;;;;19.30;9.00;;;16.50;47.90;;;;;;5016666;28;114983;-78
2023/05/27 05:24:51;;;;;;;21.05;8.88;;;16.50;48.30;;;;;;4974851;28;114567;-78
2023/05/27 05:27:27;;;;;;;19.23;10.00;;;16.50;48.00;;;;;;4952779;28;114698;-78
2023/05/27 05:29:55;;;;;;;24.10;12.57;;;16.70;48.10;;;;;;4995390;28;116175;-78
2023/05/27 05:32:22;;;;;;;25.10;15.60;;;16.70;47.60;;;;;;4980035;28;116610;-78
2023/05/27 05:34:49;;;;;;;19.40;10.35;;;16.80;47.80;;;;;;4994924;28;116157;-79
2023/05/27 05:37:17;;;;;;;14.68;8.38;;;16.90;47.50;;;;;;4978613;28;114442;-77
2023/05/27 05:39:49;;;;;;;19.42;9.73;;;17.00;47.40;;;;;;4991019;28;115840;-78
2023/05/27 05:42:17;;;;;;;18.75;9.48;;;17.20;46.90;;;;;;4981622;28;114752;-79
2023/05/27 05:44:44;;;;;;;19.17;9.07;;;17.20;47.00;;;;;;4993483;28;115023;-79
2023/05/27 05:47:11;;;;;;;18.25;9.93;;;17.30;46.90;;;;;;4984156;28;114532;-78
2023/05/27 05:49:39;;;;;;;19.02;9.10;;;17.30;46.70;;;;;;4998708;28;115073;-79
2023/05/27 05:52:09;;;;;;;18.35;9.20;;;17.50;46.50;;;;;;4981343;28;115134;-79
2023/05/27 05:54:36;;;;;;;15.65;8.40;;;17.60;47.00;;;;;;4988451;28;114563;-78
2023/05/27 05:57:03;;;;;;;18.13;9.35;;;17.70;46.00;;;;;;4983758;28;114266;-78
2023/05/27 05:59:31;;;;;;;18.52;8.25;;;17.70;45.80;;;;;;4995131;28;114996;-79
2023/05/27 06:01:59;;;;;;;22.70;9.45;;;17.70;45.80;;;;;;4979157;28;115230;-77
2023/05/27 06:04:27;;;;;;;22.55;9.55;;;17.80;46.00;;;;;;4998861;28;114578;-77
2023/05/27 06:06:54;;;;;;;17.10;8.68;;;17.80;45.20;;;;;;5000636;28;114714;-77
2023/05/27 06:09:38;;;;;;;16.67;8.77;;;17.90;45.30;;;;;;4986059;28;114891;-78
2023/05/27 06:12:19;;;;;;;19.90;9.30;;;17.90;45.10;;;;;;4986985;28;114574;-78
2023/05/27 06:14:51;;;;;;;17.98;8.85;;;18.00;45.20;;;;;;4968587;28;114572;-79
2023/05/27 06:17:28;;;;;;;19.20;9.30;;;18.00;45.60;;;;;;4980646;28;114653;-78
2023/05/27 06:20:01;;;;;;;20.35;9.23;;;18.00;44.50;;;;;;4961956;28;115131;-78
2023/05/27 06:22:28;;;;;;;18.77;8.70;;;18.10;44.20;;;;;;4963036;28;118069;-78
2023/05/27 06:25:15;;;;;;;17.52;8.77;;;18.10;44.20;;;;;;4990735;28;114531;-79
2023/05/27 06:28:04;;;;;;;16.55;8.70;;;18.20;44.00;;;;;;5000953;28;114734;-78
2023/05/27 06:30:32;;;;;;;15.63;8.85;;;18.20;44.10;;;;;;5015730;28;116267;-79
2023/05/27 06:33:01;;;;;;;18.00;8.63;;;18.20;44.70;;;;;;4992068;28;118822;-78
2023/05/27 06:35:31;;;;;;;19.83;8.63;;;18.10;44.30;;;;;;4964974;28;116626;-78
2023/05/27 06:38:07;;;;;;;17.63;8.27;;;18.20;44.10;;;;;;4978120;28;115462;-79
2023/05/27 06:40:35;;;;;;;16.90;7.93;;;18.20;43.80;;;;;;4990429;28;115971;-79
2023/05/27 06:43:03;;;;;;;18.33;8.15;;;18.30;43.90;;;;;;5000054;28;114586;-78
2023/05/27 06:45:46;;;;;;;18.33;8.23;;;18.30;43.60;;;;;;4986360;28;114730;-78
2023/05/27 06:48:46;;;;;;;16.25;8.50;;;18.30;44.80;;;;;;4975876;28;115479;-78
2023/05/27 06:51:14;;;;;;;17.05;7.53;;;18.30;43.80;;;;;;4985148;28;115538;-78
2023/05/27 06:53:41;;;;;;;16.73;9.18;;;18.30;45.40;;;;;;4982432;28;115139;-79
2023/05/27 06:56:12;;;;;;;16.17;7.30;;;18.40;44.00;;;;;;4976027;28;114547;-79
2023/05/27 06:59:01;;;;;;;16.80;8.07;;;18.50;44.30;;;;;;4980899;28;114598;-78
2023/05/27 07:01:28;;;;;;;16.33;8.10;;;18.50;45.20;;;;;;4978226;28;116988;-78
2023/05/27 07:04:01;;;;;;;15.52;7.60;;;18.50;44.10;;;;;;4989026;28;115246;-79
2023/05/27 07:06:39;;;;;;;18.00;7.90;;;18.50;43.40;;;;;;4978562;28;114777;-78
2023/05/27 07:09:06;;;;;;;15.57;7.82;;;18.20;43.90;;;;;;4982820;28;115642;-77
2023/05/27 07:11:34;;;;;;;15.55;7.60;;;18.20;44.40;;;;;;4988036;28;115028;-79
2023/05/27 07:14:06;;;;;;;16.73;8.07;;;18.30;44.20;;;;;;4992054;28;114804;-79
2023/05/27 07:16:34;;;;;;;16.88;7.60;;;18.30;43.90;;;;;;4987992;28;114384;-78
2023/05/27 07:19:03;;;;;;;18.38;7.20;;;18.40;44.20;;;;;;4999309;28;114589;-79
2023/05/27 07:21:36;;;;;;;14.90;6.65;;;18.50;43.60;;;;;;4987537;28;115257;-79
2023/05/27 07:24:08;;;;;;;14.90;7.33;;;18.60;43.80;;;;;;5000455;28;114904;-78
2023/05/27 07:26:38;;;;;;;19.10;7.60;;;18.80;43.80;;;;;;4977419;28;121868;-78
2023/05/27 07:29:05;;;;;;;17.10;7.35;;;18.80;42.90;;;;;;4985546;28;114715;-78
2023/05/27 07:31:57;;;;;;;14.38;6.70;;;18.80;42.50;;;;;;4988420;28;116921;-79
2023/05/27 07:34:31;;;;;;;14.45;6.68;;;18.80;42.60;;;;;;4967513;28;114712;-78
2023/05/27 07:36:58;;;;;;;18.33;7.13;;;18.80;42.70;;;;;;4950401;28;115380;-79
2023/05/27 07:39:26;;;;;;;21.95;7.43;;;18.80;42.80;;;;;;4988433;28;114422;-78
2023/05/27 07:41:54;;;;;;;17.33;6.82;;;18.80;42.60;;;;;;4998676;28;116234;-79
2023/05/27 07:44:22;;;;;;;14.43;6.55;;;18.80;42.50;;;;;;4995854;28;114635;-78
2023/05/27 07:47:00;;;;;;;15.70;7.32;;;18.80;42.30;;;;;;4978877;28;114402;-77
2023/05/27 07:49:27;;;;;;;14.77;6.22;;;18.80;42.20;;;;;;4959557;28;115819;-77
2023/05/27 07:52:18;;;;;;;13.90;6.63;;;18.90;42.50;;;;;;4977031;28;115006;-79
2023/05/27 07:54:47;;;;;;;18.70;6.70;;;18.80;42.60;;;;;;4991695;28;116941;-79
2023/05/27 07:57:27;;;;;;;15.98;6.60;;;18.80;42.30;;;;;;4960236;28;116150;-79
2023/05/27 07:59:56;;;;;;;12.73;5.22;;;18.90;42.20;;;;;;4979108;28;115324;-79
2023/05/27 08:02:36;;;;;;;15.27;6.15;;;18.90;41.60;;;;;;4979002;28;116604;-79
2023/05/27 08:05:04;;;;;;;16.83;6.45;;;19.00;41.40;;;;;;4978008;28;118973;-79
2023/05/27 08:08:52;;;;;;;14.93;6.28;;;19.00;42.00;;;;;;4978815;28;114637;-80
2023/05/27 08:13:00;;;;;;;13.57;5.85;;;19.00;41.80;;;;;;4964827;28;115474;-83
2023/05/27 08:16:39;;;;;;;17.95;5.95;;;19.00;41.60;;;;;;4971990;28;115277;-78
2023/05/27 08:19:39;;;;;;;13.20;4.57;;;19.00;41.60;;;;;;4979612;28;116814;-78
2023/05/27 08:22:30;;;;;;;13.27;5.03;;;19.00;40.60;;;;;;4949964;28;114559;-78
2023/05/27 08:25:26;;;;;;;14.45;5.70;;;19.00;41.10;;;;;;4921430;28;114462;-78
2023/05/27 08:28:01;;;;;;;11.52;4.68;;;18.90;41.90;;;;;;4983780;28;117402;-78
2023/05/27 08:30:43;;;;;;;12.40;5.43;;;18.90;40.70;;;;;;4984457;28;116701;-79
2023/05/27 08:33:16;;;;;;;18.00;5.70;;;18.70;40.00;;;;;;4985579;28;114661;-79
2023/05/27 08:35:43;;;;;;;11.75;4.70;;;18.60;41.70;;;;;;5003096;28;114433;-79
2023/05/27 08:38:10;;;;;;;14.30;5.30;;;18.60;41.40;;;;;;4985091;28;117149;-79
2023/05/27 08:40:41;;;;;;;15.13;4.80;;;18.60;40.80;;;;;;5001971;28;114887;-79
2023/05/27 08:43:08;;;;;;;15.25;5.25;;;18.50;40.50;;;;;;4967584;28;114308;-78
2023/05/27 08:45:43;;;;;;;13.60;4.75;;;18.30;41.60;;;;;;4985978;28;114626;-78
2023/05/27 08:48:11;;;;;;;14.40;4.70;;;18.30;40.90;;;;;;4998585;28;114854;-79
2023/05/27 08:50:40;;;;;;;13.38;4.32;;;18.30;41.40;;;;;;4984073;28;114795;-78
2023/05/27 08:53:07;;;;;;;12.98;5.45;;;18.30;40.70;;;;;;4962597;28;114440;-78
2023/05/27 08:55:35;;;;;;;11.70;4.63;;;18.30;41.10;;;;;;4963797;28;114252;-79
2023/05/27 08:58:04;;;;;;;15.23;5.55;;;18.30;40.40;;;;;;4980706;28;114879;-78
2023/05/27 09:00:36;;;;;;;11.98;5.18;;;18.30;40.30;;;;;;4959764;28;114746;-79
2023/05/27 09:03:13;;;;;;;17.88;5.80;;;18.30;40.50;;;;;;5000107;28;114304;-79
2023/05/27 09:05:40;;;;;;;16.27;5.53;;;18.20;40.40;;;;;;4961609;28;114449;-79
2023/05/27 09:08:07;;;;;;;11.75;4.47;;;18.20;40.30;;;;;;4982640;28;116445;-79
2023/05/27 09:10:42;;;;;;;14.10;4.97;;;18.00;40.60;;;;;;4997215;28;114842;-78
2023/05/27 09:13:45;;;;;;;13.52;5.22;;;18.00;41.30;;;;;;4997311;28;114513;-79
2023/05/27 09:16:33;;;;;;;14.25;4.68;;;18.00;42.00;;;;;;4980202;28;116077;-79
2023/05/27 09:19:01;;;;;;;15.07;5.78;;;18.10;42.50;;;;;;4980557;28;118346;-79
2023/05/27 09:21:28;;;;;;;16.95;5.20;;;18.40;42.10;;;;;;4996114;28;114604;-81
2023/05/27 09:23:57;;;;;;;15.10;5.32;;;18.70;41.90;;;;;;4994316;28;114599;-78
2023/05/27 09:26:25;;;;;;;14.10;4.95;;;18.80;41.60;;;;;;4993477;28;114172;-77
2023/05/27 09:28:52;;;;;;;15.85;4.80;;;18.70;40.90;;;;;;5002152;28;114819;-78
2023/05/27 09:31:22;;;;;;;14.23;4.90;;;18.60;41.60;;;;;;4960549;28;114650;-78
2023/05/27 09:33:50;;;;;;;12.30;5.03;;;18.50;41.30;;;;;;4983537;28;114243;-78
2023/05/27 09:36:20;;;;;;;14.32;5.07;;;18.40;42.10;;;;;;4982910;28;114481;-78
2023/05/27 09:38:48;;;;;;;16.25;5.35;;;18.30;41.20;;;;;;4970931;28;115820;-78
2023/05/27 09:41:15;;;;;;;15.40;5.03;;;18.20;41.80;;;;;;4993082;28;114653;-78
2023/05/27 09:43:42;;;;;;;15.43;5.35;;;18.10;41.90;;;;;;4979793;28;114462;-79
2023/05/27 09:46:12;;;;;;;12.25;4.40;;;18.10;41.60;;;;;;4983274;28;114296;-79
2023/05/27 09:48:39;;;;;;;14.05;4.82;;;18.10;41.00;;;;;;4981968;28;116171;-78
2023/05/27 09:51:07;;;;;;;13.60;4.88;;;18.00;40.80;;;;;;4996537;28;114756;-78
2023/05/27 09:53:35;;;;;;;12.43;4.43;;;18.00;41.30;;;;;;4967648;28;114432;-78
2023/05/27 09:56:02;;;;;;;13.02;4.80;;;18.10;40.60;;;;;;4989070;28;114699;-79
2023/05/27 09:58:30;;;;;;;13.80;5.38;;;18.10;40.30;;;;;;4968506;28;115032;-78
2023/05/27 10:00:58;;;;;;;13.93;4.65;;;18.20;40.80;;;;;;5003590;28;114999;-78
2023/05/27 10:03:28;;;;;;;13.07;5.07;;;18.20;40.10;;;;;;5005374;28;114101;-78
2023/05/27 10:05:55;;;;;;;11.38;4.47;;;18.30;40.20;;;;;;4998542;28;114337;-77
2023/05/27 10:08:22;;;;;;;14.65;5.05;;;18.40;41.10;;;;;;4988144;28;115055;-77
2023/05/27 10:10:53;;;;;;;15.02;5.72;;;18.60;40.10;;;;;;5003952;28;114645;-79
2023/05/27 10:13:21;;;;;;;17.60;5.57;;;18.60;39.70;;;;;;4995970;28;114453;-78
2023/05/27 10:15:51;;;;;;;12.93;4.75;;;18.70;39.80;;;;;;4985607;28;114660;-78
2023/05/27 10:18:29;;;;;;;12.90;4.70;;;18.80;39.10;;;;;;4984643;28;115160;-78
2023/05/27 10:20:57;;;;;;;15.15;4.95;;;18.80;39.20;;;;;;4992707;28;114674;-78
2023/05/27 10:23:27;;;;;;;12.27;4.55;;;18.70;38.50;;;;;;4970094;28;114363;-79
2023/05/27 10:25:57;;;;;;;14.35;5.20;;;18.80;39.50;;;;;;4985160;28;114159;-78
2023/05/27 10:28:25;;;;;;;13.70;4.93;;;18.80;39.00;;;;;;4997008;28;114971;-78
2023/05/27 10:30:52;;;;;;;12.48;5.25;;;18.80;39.30;;;;;;4970839;28;114660;-79
2023/05/27 10:33:30;;;;;;;15.30;6.07;;;18.80;39.40;;;;;;4994189;28;117755;-78
2023/05/27 10:36:12;;;;;;;15.20;5.45;;;18.70;39.10;;;;;;4977356;28;115105;-79
2023/05/27 10:38:41;;;;;;;14.30;5.13;;;18.70;39.60;;;;;;4980875;28;115003;-78
2023/05/27 10:45:36;;;;;;;15.25;6.05;;;18.70;39.50;;;;;;4969740;28;114420;-79
2023/05/27 10:48:03;;;;;;;15.10;5.28;;;18.70;39.20;;;;;;4970760;28;114301;-79
2023/05/27 10:50:34;;;;;;;12.43;5.28;;;18.80;39.90;;;;;;4987125;28;114824;-80
2023/05/27 10:53:02;;;;;;;17.10;5.80;;;19.00;39.60;;;;;;4999849;28;115489;-79
2023/05/27 10:55:32;;;;;;;14.50;5.18;;;19.00;39.50;;;;;;4995074;28;114298;-79
2023/05/27 10:58:00;;;;;;;15.15;5.50;;;19.00;39.80;;;;;;4984317;28;114425;-78
2023/05/27 11:00:38;;;;;;;15.20;5.80;;;18.90;39.50;;;;;;4982603;28;116105;-77
2023/05/27 11:03:22;;;;;;;13.85;6.18;;;19.00;39.80;;;;;;4993590;28;115372;-77
2023/05/27 11:06:07;;;;;;;16.42;5.82;;;19.00;39.40;;;;;;4996762;28;114555;-76
2023/05/27 11:08:35;;;;;;;16.02;6.00;;;19.10;40.10;;;;;;4977645;28;114364;-78
2023/05/27 11:11:07;;;;;;;14.65;5.47;;;19.20;38.90;;;;;;5001988;28;115009;-78
2023/05/27 11:13:37;;;;;;;15.27;5.43;;;19.10;39.10;;;;;;4964343;28;114505;-78
2023/05/27 11:16:05;;;;;;;14.10;5.35;;;19.10;38.60;;;;;;4968279;28;114266;-77
2023/05/27 11:18:41;;;;;;;13.15;5.55;;;19.00;38.80;;;;;;4984776;28;114594;-78
2023/05/27 11:21:09;;;;;;;15.52;6.35;;;19.00;38.80;;;;;;5007495;28;116365;-78
2023/05/27 11:23:57;;;;;;;15.60;5.93;;;18.90;38.40;;;;;;5002648;28;116156;-78
2023/05/27 11:26:27;;;;;;;14.30;5.60;;;18.90;39.00;;;;;;4977973;28;114560;-78
2023/05/27 11:28:59;;;;;;;17.60;5.80;;;18.90;38.10;;;;;;4997427;28;114433;-78
2023/05/27 11:31:31;;;;;;;14.02;5.18;;;18.90;38.70;;;;;;4981637;28;115473;-79
2023/05/27 11:39:27;;;;;;;13.55;5.45;;;19.00;37.60;;;;;;4880504;28;114531;-78
2023/05/27 11:42:12;;;;;;;17.73;5.90;;;18.80;38.40;;;;;;4912994;28;115374;-79
2023/05/27 11:44:39;;;;;;;12.50;5.25;;;19.00;38.30;;;;;;4979867;28;114938;-79
2023/05/27 11:47:06;;;;;;;14.45;5.70;;;19.10;38.60;;;;;;4979065;28;116946;-78
2023/05/27 11:49:34;;;;;;;15.05;5.63;;;19.10;38.40;;;;;;4981107;28;114543;-79
2023/05/27 11:52:01;;;;;;;13.23;5.25;;;19.10;38.60;;;;;;4984279;28;116219;-79
2023/05/27 11:54:30;;;;;;;15.35;5.32;;;19.00;38.70;;;;;;4981445;28;115518;-79
2023/05/27 11:56:58;;;;;;;15.60;5.30;;;19.00;38.80;;;;;;4982525;28;114682;-80
2023/05/27 11:59:26;;;;;;;11.75;4.95;;;19.00;38.60;;;;;;4975737;28;114582;-79
2023/05/27 12:01:53;;;;;;;16.02;5.93;;;19.10;39.30;;;;;;4980975;28;114433;-79
2023/05/27 12:04:28;;;;;;;14.63;5.72;;;19.10;38.80;;;;;;4985939;28;115391;-80
2023/05/27 12:07:00;;;;;;;13.60;5.05;;;19.20;38.80;;;;;;4981850;28;115802;-81
2023/05/27 12:09:35;;;;;;;11.52;4.93;;;19.20;39.30;;;;;;4997017;28;114531;-79
2023/05/27 12:12:02;;;;;;;16.92;4.90;;;19.30;38.20;;;;;;4981429;28;114427;-79
2023/05/27 12:14:30;;;;;;;13.77;5.35;;;19.30;38.10;;;;;;4978508;28;115215;-80
2023/05/27 12:16:57;;;;;;;14.30;5.20;;;19.30;37.50;;;;;;4961772;28;115268;-81
2023/05/27 12:19:48;;;;;;;14.75;5.28;;;19.20;37.30;;;;;;4973403;28;116509;-78
2023/05/27 12:22:29;;;;;;;15.35;5.20;;;19.20;37.70;;;;;;4966330;28;114417;-78
2023/05/27 12:24:57;;;;;;;11.52;5.03;;;19.20;37.40;;;;;;4978790;28;114930;-78
2023/05/27 12:27:25;;;;;;;12.95;5.18;;;19.10;37.60;;;;;;4974472;28;115954;-78
2023/05/27 12:29:53;;;;;;;15.40;4.68;;;19.10;37.90;;;;;;4977245;28;114563;-79
2023/05/27 12:32:23;;;;;;;14.32;5.82;;;19.10;38.20;;;;;;4975644;28;114424;-79
2023/05/27 12:34:51;;;;;;;12.18;5.35;;;19.10;37.90;;;;;;4968463;28;117314;-79
2023/05/27 12:37:18;;;;;;;17.38;5.32;;;19.10;38.20;;;;;;4972380;28;117394;-79
2023/05/27 12:39:45;;;;;;;14.10;5.00;;;19.10;37.20;;;;;;4969819;28;114337;-78
2023/05/27 12:42:15;;;;;;;10.43;5.55;;;19.10;37.20;;;;;;4976452;28;114547;-79
2023/05/27 12:44:44;;;;;;;10.68;4.70;;;19.10;37.60;;;;;;4970782;28;114861;-77
2023/05/27 12:47:11;;;;;;;14.68;5.15;;;19.10;37.80;;;;;;4975204;28;114687;-78
2023/05/27 12:49:40;;;;;;;8.50;4.38;;;19.20;37.70;;;;;;4979386;28;114369;-78
2023/05/27 12:52:07;;;;;;;14.05;5.25;;;19.20;37.80;;;;;;4984652;28;114683;-79
2023/05/27 12:54:34;;;;;;;12.05;5.15;;;19.30;38.00;;;;;;4978738;28;116809;-79
2023/05/27 12:57:04;;;;;;;12.90;5.20;;;19.30;37.90;;;;;;4980002;28;115288;-79
2023/05/27 12:59:33;;;;;;;16.15;5.38;;;19.40;38.20;;;;;;4976530;28;114188;-78